Time;durP1;ratioP1;P1;durP2;ratioP2;P2;SDS_P1;SDS_P2;PMS_P1;PMS_P2;Temp;Humidity;BMP_temperature;BMP_pressure;BME280_temperature;BME280_humidity;BME280_pressure;Samples;Min_cycle;Max_cycle;Signal;HPM_P1;HPM_P2
2023/12/19 00:00:28;;;;;;;4.13;1.70;;;;;;;6.62;91.07;101639.50;5056505;28;20525;-70
2023/12/19 00:02:54;;;;;;;4.90;1.47;;;;;;;6.67;91.19;101630.66;5056404;28;20550;-70
2023/12/19 00:05:21;;;;;;;6.53;2.60;;;;;;;6.67;90.66;101626.09;5055733;28;21000;-70
2023/12/19 00:07:49;;;;;;;2.57;1.03;;;;;;;6.65;90.94;101608.59;5055757;28;20474;-70
2023/12/19 00:10:16;;;;;;;2.70;1.07;;;;;;;6.61;90.43;101600.19;5055721;28;20438;-70
2023/12/19 00:12:43;;;;;;;3.23;1.40;;;;;;;6.62;90.95;101623.34;5055636;28;20549;-70
2023/12/19 00:15:10;;;;;;;7.10;2.03;;;;;;;6.64;90.73;101618.53;5055546;28;20486;-70
2023/12/19 00:17:39;;;;;;;4.70;1.80;;;;;;;6.64;89.90;101615.00;5055929;28;20438;-70
2023/12/19 00:20:06;;;;;;;2.33;0.80;;;;;;;6.63;89.81;101595.34;5055923;28;20537;-71
2023/12/19 00:22:33;;;;;;;3.10;1.33;;;;;;;6.66;90.04;101575.22;5055728;28;20488;-71
2023/12/19 00:25:01;;;;;;;3.93;1.50;;;;;;;6.62;89.87;101584.84;5055748;28;20468;-70
2023/12/19 00:27:27;;;;;;;2.80;1.20;;;;;;;6.60;89.82;101608.50;5055782;28;20873;-71
2023/12/19 00:29:54;;;;;;;4.63;1.33;;;;;;;6.57;90.10;101620.59;5055910;28;20529;-71
2023/12/19 00:32:20;;;;;;;3.07;0.97;;;;;;;6.60;90.00;101624.63;5055667;28;20434;-71
2023/12/19 00:34:47;;;;;;;6.23;1.70;;;;;;;6.67;89.98;101639.56;5055253;28;20521;-70
2023/12/19 00:37:14;;;;;;;5.37;1.50;;;;;;;6.70;89.61;101635.56;5056067;28;20481;-70
2023/12/19 00:39:40;;;;;;;3.20;1.50;;;;;;;6.70;89.39;101616.72;5055535;28;20777;-70
2023/12/19 00:42:08;;;;;;;4.60;1.40;;;;;;;6.69;89.73;101629.38;5055481;28;20442;-70
2023/12/19 00:44:36;;;;;;;5.17;1.70;;;;;;;6.71;90.07;101659.53;5055102;28;20464;-70
2023/12/19 00:47:03;;;;;;;6.90;1.73;;;;;;;6.71;89.26;101664.91;5055365;28;20453;-71
2023/12/19 00:49:30;;;;;;;3.07;1.03;;;;;;;6.81;89.47;101661.53;5055590;28;20442;-71
2023/12/19 00:51:56;;;;;;;4.00;2.20;;;;;;;6.78;89.34;101659.38;5055322;28;20517;-71
2023/12/19 00:54:23;;;;;;;2.87;1.40;;;;;;;6.81;89.53;101643.50;5055474;28;20573;-71
2023/12/19 00:56:50;;;;;;;2.43;1.00;;;;;;;6.84;89.48;101620.66;5055451;28;20873;-71
2023/12/19 00:59:18;;;;;;;3.93;1.60;;;;;;;6.83;89.08;101613.66;5055109;28;20470;-71
2023/12/19 01:01:44;;;;;;;3.30;1.57;;;;;;;6.88;89.25;101626.38;5055464;28;20442;-71
2023/12/19 01:04:11;;;;;;;3.50;1.20;;;;;;;6.92;89.39;101633.69;5054953;28;20592;-71
2023/12/19 01:06:37;;;;;;;3.43;1.10;;;;;;;6.96;88.97;101640.22;5054753;28;20427;-71
2023/12/19 01:09:05;;;;;;;3.70;1.67;;;;;;;6.97;88.86;101625.69;5054991;28;20445;-71
2023/12/19 01:11:32;;;;;;;3.13;1.30;;;;;;;6.98;88.59;101645.34;5054932;28;20443;-71
2023/12/19 01:13:58;;;;;;;4.87;2.20;;;;;;;6.98;88.26;101643.47;5054821;28;20486;-70
2023/12/19 01:16:28;;;;;;;8.83;2.47;;;;;;;7.07;87.56;101641.94;5055378;28;20526;-71
2023/12/19 01:18:55;;;;;;;3.40;0.93;;;;;;;7.10;87.96;101650.63;5055088;28;20525;-69
2023/12/19 01:21:22;;;;;;;5.00;2.27;;;;;;;7.11;87.57;101636.06;5077256;22;21051;-66
2023/12/19 01:23:48;;;;;;;3.20;1.67;;;;;;;7.12;87.07;101632.31;5074589;28;20484;-65
2023/12/19 01:26:15;;;;;;;4.23;1.30;;;;;;;7.13;86.91;101632.06;5074845;28;20441;-65
2023/12/19 01:28:42;;;;;;;5.30;1.50;;;;;;;7.11;87.82;101631.50;5074969;28;20473;-65
2023/12/19 01:31:08;;;;;;;2.90;1.37;;;;;;;7.13;88.32;101634.75;5074894;28;20460;-66
2023/12/19 01:33:36;;;;;;;2.93;1.20;;;;;;;7.12;89.87;101632.31;5074570;28;20720;-66
2023/12/19 01:36:03;;;;;;;3.13;1.13;;;;;;;7.07;89.78;101639.25;5074599;28;20489;-66
2023/12/19 01:38:30;;;;;;;3.60;1.47;;;;;;;7.09;90.20;101641.72;5074450;28;20448;-66
2023/12/19 01:40:56;;;;;;;2.20;0.77;;;;;;;7.07;89.79;101641.94;5074025;28;20937;-67
2023/12/19 01:43:23;;;;;;;5.00;2.40;;;;;;;7.10;89.78;101634.44;5074241;28;20437;-66
2023/12/19 01:45:51;;;;;;;4.87;2.00;;;;;;;7.14;90.31;101631.00;5074287;28;20469;-66
2023/12/19 01:48:18;;;;;;;2.93;1.33;;;;;;;7.17;89.25;101641.28;5074153;28;20489;-66
2023/12/19 01:50:47;;;;;;;4.37;1.93;;;;;;;7.20;89.21;101638.06;5073888;28;20517;-67
2023/12/19 01:53:14;;;;;;;5.63;2.00;;;;;;;7.17;89.49;101635.88;5074356;28;20461;-68
2023/12/19 01:55:41;;;;;;;2.50;0.70;;;;;;;7.20;89.89;101638.06;5074232;28;20484;-67
2023/12/19 01:58:10;;;;;;;3.50;1.53;;;;;;;7.22;89.75;101619.78;5074524;28;20440;-67
2023/12/19 02:00:38;;;;;;;3.23;1.13;;;;;;;7.20;89.85;101613.81;5073630;28;21020;-67
2023/12/19 02:03:05;;;;;;;2.70;1.23;;;;;;;7.22;89.66;101606.31;5073993;28;20927;-67
2023/12/19 02:05:33;;;;;;;4.40;1.60;;;;;;;7.23;89.93;101607.13;5073729;28;20458;-67
2023/12/19 02:08:01;;;;;;;2.40;1.00;;;;;;;7.23;89.59;101607.94;5073704;28;21027;-67
2023/12/19 02:10:28;;;;;;;4.43;1.57;;;;;;;7.24;88.52;101606.03;5073846;28;20451;-67
2023/12/19 02:12:54;;;;;;;3.90;1.10;;;;;;;7.15;88.95;101611.06;5074134;28;20512;-67
2023/12/19 02:15:21;;;;;;;3.77;1.60;;;;;;;7.17;88.61;101595.47;5073556;28;20485;-67
2023/12/19 02:17:48;;;;;;;4.00;1.57;;;;;;;7.24;88.38;101606.03;5073416;28;20929;-67
2023/12/19 02:20:15;;;;;;;3.10;1.10;;;;;;;7.26;87.45;101599.34;5074246;28;20480;-67
2023/12/19 02:22:42;;;;;;;3.80;1.40;;;;;;;7.27;87.53;101592.06;5073545;28;20815;-67
2023/12/19 02:25:10;;;;;;;4.60;2.23;;;;;;;7.30;87.55;101586.16;5073616;28;20485;-67
2023/12/19 02:27:37;;;;;;;3.73;1.40;;;;;;;7.27;86.97;101578.59;5073307;28;20862;-67
2023/12/19 02:30:05;;;;;;;2.87;1.20;;;;;;;7.23;86.51;101583.69;5074018;28;20449;-66
2023/12/19 02:32:34;;;;;;;4.80;2.10;;;;;;;7.31;86.56;101587.81;5073561;28;20448;-67
2023/12/19 02:35:01;;;;;;;5.20;1.80;;;;;;;7.34;86.67;101577.31;5073662;28;20520;-67
2023/12/19 02:37:27;;;;;;;2.50;0.93;;;;;;;7.40;86.46;101558.50;5073208;28;20440;-67
2023/12/19 02:39:53;;;;;;;2.87;0.90;;;;;;;7.34;86.63;101569.22;5073906;28;20441;-68
2023/12/19 02:42:21;;;;;;;3.00;1.40;;;;;;;7.41;86.13;101546.66;5073512;28;20782;-68
2023/12/19 02:44:48;;;;;;;5.53;2.03;;;;;;;7.42;86.10;101530.22;5073705;28;20219;-67
2023/12/19 02:47:14;;;;;;;5.67;1.73;;;;;;;7.38;86.56;101544.47;5073405;28;20550;-67
2023/12/19 02:49:41;;;;;;;4.73;1.10;;;;;;;7.49;85.85;101551.59;5073129;28;20524;-67
2023/12/19 02:52:07;;;;;;;2.80;1.63;;;;;;;7.52;85.78;101548.34;5073473;28;20830;-67
2023/12/19 02:54:34;;;;;;;3.67;1.40;;;;;;;7.48;85.88;101569.66;5073296;28;20576;-67
2023/12/19 02:57:00;;;;;;;2.87;1.00;;;;;;;7.48;86.45;101541.84;5073383;28;20478;-67
2023/12/19 02:59:28;;;;;;;3.07;1.17;;;;;;;7.39;86.88;101536.09;5073675;28;20444;-67
2023/12/19 03:01:55;;;;;;;2.50;0.93;;;;;;;7.41;87.04;101541.25;5075802;28;20461;-67
2023/12/19 03:04:22;;;;;;;2.80;1.57;;;;;;;7.41;87.61;101549.34;5077216;28;20956;-67
2023/12/19 03:06:48;;;;;;;2.43;0.80;;;;;;;7.39;87.48;101546.09;5077311;28;20445;-67
2023/12/19 03:09:15;;;;;;;3.23;1.23;;;;;;;7.44;87.56;101543.47;5077460;28;20469;-67
2023/12/19 03:11:41;;;;;;;5.87;1.67;;;;;;;7.43;87.82;101536.41;5076939;28;20933;-67
2023/12/19 03:14:08;;;;;;;4.40;1.70;;;;;;;7.45;87.93;101528.91;5076947;28;20481;-67
2023/12/19 03:16:36;;;;;;;4.43;1.80;;;;;;;7.48;87.74;101533.75;5076855;28;20929;-67
2023/12/19 03:19:02;;;;;;;3.07;1.30;;;;;;;7.51;87.66;101534.06;5077093;28;20469;-67
2023/12/19 03:21:29;;;;;;;3.00;1.33;;;;;;;7.47;88.58;101513.28;5076976;28;20528;-67
2023/12/19 03:23:56;;;;;;;6.00;1.60;;;;;;;7.50;88.48;101513.56;5076635;28;21011;-67
2023/12/19 03:26:22;;;;;;;9.43;2.00;;;;;;;7.51;88.45;101504.41;5076936;28;20437;-68
2023/12/19 03:28:49;;;;;;;3.70;1.40;;;;;;;7.51;88.81;101506.31;5076889;28;20945;-65
2023/12/19 03:31:16;;;;;;;5.40;1.47;;;;;;;7.51;89.02;101514.38;5077043;28;20441;-66
2023/12/19 03:33:43;;;;;;;3.30;1.43;;;;;;;7.50;89.00;101505.50;5076674;28;20453;-66
2023/12/19 03:36:10;;;;;;;4.47;1.60;;;;;;;7.51;89.00;101523.28;5076559;28;20472;-67
2023/12/19 03:38:37;;;;;;;4.63;2.50;;;;;;;7.59;88.81;101540.88;5076719;28;20447;-66
2023/12/19 03:41:03;;;;;;;4.47;2.00;;;;;;;7.53;88.98;101525.75;5076920;28;20445;-67
2023/12/19 03:43:30;;;;;;;4.97;1.47;;;;;;;7.51;89.71;101522.47;5076993;28;20519;-67
2023/12/19 03:46:01;;;;;;;4.23;2.20;;;;;;;7.51;89.70;101522.47;5076927;28;20437;-67
2023/12/19 03:48:27;;;;;;;6.83;1.80;;;;;;;7.48;89.98;101520.28;5076570;28;20430;-67
2023/12/19 03:50:54;;;;;;;5.67;1.10;;;;;;;7.51;89.71;101517.88;5076542;28;20487;-67
2023/12/19 03:53:22;;;;;;;4.30;2.03;;;;;;;7.50;90.12;101518.16;5076300;28;20452;-67
2023/12/19 03:55:49;;;;;;;2.47;1.03;;;;;;;7.53;89.73;101507.69;5076670;28;20480;-67
2023/12/19 03:58:15;;;;;;;8.83;1.97;;;;;;;7.56;89.63;101519.81;5076457;28;20933;-68
2023/12/19 04:00:42;;;;;;;4.13;2.10;;;;;;;7.57;89.81;101518.78;5076585;28;20441;-68
2023/12/19 04:03:08;;;;;;;4.90;2.10;;;;;;;7.54;90.31;101514.69;5076562;28;20469;-68
2023/12/19 04:05:35;;;;;;;3.83;1.87;;;;;;;7.56;90.43;101512.53;5076628;28;20469;-68
2023/12/19 04:08:03;;;;;;;3.97;1.50;;;;;;;7.54;90.33;101513.88;5076135;28;20449;-67
2023/12/19 04:10:30;;;;;;;5.33;1.90;;;;;;;7.55;90.57;101516.31;5076163;28;20437;-67
2023/12/19 04:12:57;;;;;;;5.97;2.37;;;;;;;7.57;90.34;101510.69;5075667;28;20444;-67
2023/12/19 04:15:23;;;;;;;3.63;1.60;;;;;;;7.57;90.41;101500.72;5075921;28;20512;-68
2023/12/19 04:17:50;;;;;;;3.83;1.80;;;;;;;7.57;90.35;101510.69;5076069;28;20953;-68
2023/12/19 04:20:17;;;;;;;3.07;1.53;;;;;;;7.55;90.81;101510.09;5076052;28;20451;-67
2023/12/19 04:22:44;;;;;;;3.20;1.30;;;;;;;7.62;90.65;101518.00;5075920;28;20444;-67
2023/12/19 04:25:12;;;;;;;2.97;1.10;;;;;;;7.56;90.94;101509.03;5075838;28;20541;-67
2023/12/19 04:27:39;;;;;;;4.90;1.70;;;;;;;7.54;91.04;101516.56;5075811;28;20465;-67
2023/12/19 04:30:07;;;;;;;2.90;1.60;;;;;;;7.57;90.90;101499.91;5076096;28;20480;-66
2023/12/19 04:32:33;;;;;;;4.10;2.40;;;;;;;7.54;90.98;101497.72;5075663;28;20869;-66
2023/12/19 04:35:00;;;;;;;4.07;1.40;;;;;;;7.63;91.11;101501.53;5075401;28;20849;-67
2023/12/19 04:37:26;;;;;;;6.43;1.50;;;;;;;7.58;91.04;101496.13;5075428;28;20465;-67
2023/12/19 04:39:54;;;;;;;3.23;1.40;;;;;;;7.56;91.60;101495.56;5075682;28;20510;-67
2023/12/19 04:42:22;;;;;;;3.97;2.20;;;;;;;7.54;91.71;101501.22;5075313;28;20442;-67
2023/12/19 04:44:48;;;;;;;4.30;1.63;;;;;;;7.60;91.72;101512.84;5075141;28;20541;-67
2023/12/19 04:47:15;;;;;;;3.70;1.90;;;;;;;7.58;91.67;101498.81;5074918;28;20441;-67
2023/12/19 04:49:42;;;;;;;3.90;1.43;;;;;;;7.58;91.61;101485.34;5074841;28;20437;-67
2023/12/19 04:52:08;;;;;;;4.67;1.77;;;;;;;7.58;91.53;101480.75;5075128;28;20525;-67
2023/12/19 04:54:35;;;;;;;4.80;1.97;;;;;;;7.56;92.03;101474.78;5074818;28;20461;-67
2023/12/19 04:57:03;;;;;;;11.60;2.20;;;;;;;7.54;92.77;101462.66;5075116;28;20469;-67
2023/12/19 04:59:32;;;;;;;4.73;1.53;;;;;;;7.55;92.42;101461.59;5075287;28;20940;-68
2023/12/19 05:01:58;;;;;;;4.70;2.40;;;;;;;7.57;92.11;101462.16;5074983;28;20543;-69
2023/12/19 05:04:25;;;;;;;6.00;2.47;;;;;;;7.59;92.55;101458.09;5074473;28;20528;-68
2023/12/19 05:06:52;;;;;;;3.47;1.20;;;;;;;7.57;92.44;101451.38;5075048;28;20480;-68
2023/12/19 05:09:20;;;;;;;3.13;1.50;;;;;;;7.62;92.50;101450.59;5074785;28;20807;-68
2023/12/19 05:11:46;;;;;;;3.70;1.60;;;;;;;7.65;92.59;101469.72;5074964;28;20460;-67
2023/12/19 05:14:13;;;;;;;6.00;2.30;;;;;;;7.66;92.91;101482.16;5074472;28;20454;-68
2023/12/19 05:16:41;;;;;;;3.10;1.20;;;;;;;7.71;92.76;101476.81;5075178;28;20840;-68
2023/12/19 05:19:08;;;;;;;4.23;1.77;;;;;;;7.74;92.82;101470.06;5074220;28;20448;-68
2023/12/19 05:21:37;;;;;;;4.03;1.80;;;;;;;7.76;92.80;101474.13;5074350;28;20441;-67
2023/12/19 05:24:04;;;;;;;4.83;2.40;;;;;;;7.78;92.85;101471.97;5074162;28;20552;-67
2023/12/19 05:26:31;;;;;;;6.80;2.50;;;;;;;7.76;93.13;101471.44;5074091;28;20807;-67
2023/12/19 05:28:58;;;;;;;3.60;1.33;;;;;;;7.74;93.24;101462.78;5074274;28;20484;-67
2023/12/19 05:31:24;;;;;;;3.97;1.23;;;;;;;7.76;93.46;101457.94;5074583;28;20524;-67
2023/12/19 05:33:52;;;;;;;3.57;1.63;;;;;;;7.75;94.06;101458.22;5074208;28;20493;-67
2023/12/19 05:36:19;;;;;;;4.10;1.40;;;;;;;7.86;93.42;101462.59;5074222;28;20481;-66
2023/12/19 05:38:45;;;;;;;3.90;1.73;;;;;;;7.82;93.81;101454.19;5074689;28;20441;-67
2023/12/19 05:41:14;;;;;;;5.13;2.10;;;;;;;7.80;94.34;101437.47;5074311;28;20528;-67
2023/12/19 05:43:41;;;;;;;6.17;2.13;;;;;;;7.77;95.26;101435.31;5074367;28;20461;-67
2023/12/19 05:46:08;;;;;;;5.53;1.60;;;;;;;7.74;96.03;101427.72;5074234;28;20859;-67
2023/12/19 05:48:34;;;;;;;4.73;2.20;;;;;;;7.75;96.15;101428.56;5074409;28;20440;-67
2023/12/19 05:51:03;;;;;;;4.53;2.23;;;;;;;7.73;97.08;101433.38;5074195;28;20469;-67
2023/12/19 05:53:30;;;;;;;4.80;1.70;;;;;;;7.73;97.60;101431.50;5074128;28;20524;-67
2023/12/19 05:55:57;;;;;;;4.70;2.03;;;;;;;7.71;97.97;101428.25;5074136;28;20481;-67
2023/12/19 05:58:24;;;;;;;3.30;1.77;;;;;;;7.72;98.10;101429.06;5073752;28;20486;-67
2023/12/19 06:00:50;;;;;;;6.03;2.03;;;;;;;7.78;98.86;101446.91;5074082;28;20520;-67
2023/12/19 06:03:17;;;;;;;4.73;1.90;;;;;;;7.82;98.40;101454.19;5074221;28;20861;-67
2023/12/19 06:05:44;;;;;;;3.23;1.57;;;;;;;7.89;97.78;101458.56;5073797;28;20541;-67
2023/12/19 06:08:11;;;;;;;4.20;1.80;;;;;;;7.86;98.30;101457.19;5073832;28;20524;-67
2023/12/19 06:10:38;;;;;;;5.03;2.53;;;;;;;7.84;98.44;101451.25;5073833;28;20448;-66
2023/12/19 06:13:06;;;;;;;3.80;1.57;;;;;;;7.83;98.68;101433.44;5074112;28;20473;-66
2023/12/19 06:15:32;;;;;;;4.43;2.30;;;;;;;7.84;98.44;101425.09;5073627;28;21039;-66
2023/12/19 06:17:59;;;;;;;5.03;1.77;;;;;;;7.86;98.54;101422.13;5074169;28;20472;-66
2023/12/19 06:20:26;;;;;;;4.50;2.20;;;;;;;7.83;98.40;101418.09;5073511;28;20437;-67
2023/12/19 06:22:53;;;;;;;8.00;2.90;;;;;;;7.83;98.72;101415.41;5074099;28;20461;-67
2023/12/19 06:25:21;;;;;;;4.27;1.83;;;;;;;7.83;98.44;101396.50;5073503;28;20455;-67
2023/12/19 06:27:47;;;;;;;6.27;1.80;;;;;;;7.87;97.87;101382.47;5073449;28;20933;-67
2023/12/19 06:30:14;;;;;;;3.27;1.43;;;;;;;7.84;97.74;101383.84;5073656;28;20446;-67
2023/12/19 06:32:42;;;;;;;3.70;1.90;;;;;;;7.80;97.64;101369.25;5073314;28;20945;-67
2023/12/19 06:35:09;;;;;;;4.53;1.60;;;;;;;7.80;96.81;101366.56;5073384;28;20512;-67
2023/12/19 06:37:36;;;;;;;6.17;1.40;;;;;;;7.78;96.24;101366.00;5073858;28;20528;-66
2023/12/19 06:40:03;;;;;;;5.53;2.10;;;;;;;7.72;96.00;101375.94;5073371;28;20473;-66
2023/12/19 06:42:31;;;;;;;4.10;2.30;;;;;;;7.71;95.79;101393.22;5073498;28;20444;-67
2023/12/19 06:45:00;;;;;;;3.40;1.37;;;;;;;7.75;95.75;101388.91;5073745;28;20544;-67
2023/12/19 06:47:27;;;;;;;5.60;2.40;;;;;;;7.73;96.01;101387.53;5074069;28;20437;-66
2023/12/19 06:49:53;;;;;;;3.50;1.27;;;;;;;7.73;96.06;101382.16;5073438;28;20503;-66
2023/12/19 06:52:20;;;;;;;3.83;1.60;;;;;;;7.80;95.51;101372.75;5073752;28;20464;-66
2023/12/19 06:54:47;;;;;;;5.13;2.07;;;;;;;7.79;95.81;101363.06;5072982;28;20985;-67
2023/12/19 06:57:14;;;;;;;3.63;1.57;;;;;;;7.78;95.98;101350.63;5073225;28;20481;-67
2023/12/19 06:59:42;;;;;;;4.57;1.83;;;;;;;7.82;95.79;101357.09;5073656;28;20524;-67
2023/12/19 07:02:08;;;;;;;3.17;1.67;;;;;;;7.81;96.01;101358.19;5072988;28;20953;-65
2023/12/19 07:04:35;;;;;;;4.10;1.60;;;;;;;7.83;95.63;101364.16;5072983;28;20516;-69
2023/12/19 07:07:02;;;;;;;4.63;1.53;;;;;;;7.87;95.67;101380.59;5072953;28;20465;-68
2023/12/19 07:09:29;;;;;;;3.00;1.13;;;;;;;7.90;95.65;101384.66;5073511;28;20448;-67
2023/12/19 07:11:57;;;;;;;7.63;1.90;;;;;;;7.94;95.47;101396.56;5073370;28;20476;-66
2023/12/19 07:14:24;;;;;;;5.20;1.70;;;;;;;7.93;95.51;101401.13;5073397;28;20541;-67
2023/12/19 07:16:51;;;;;;;7.97;2.40;;;;;;;7.97;95.45;101409.50;5073432;28;20555;-67
2023/12/19 07:19:18;;;;;;;4.23;1.77;;;;;;;7.95;95.88;101406.25;5073180;28;20499;-67
2023/12/19 07:21:45;;;;;;;4.27;2.00;;;;;;;7.96;95.79;101397.91;5076488;22;20969;-69
2023/12/19 07:24:12;;;;;;;4.40;1.50;;;;;;;7.98;95.83;101400.34;5052605;28;20474;-68
2023/12/19 07:26:38;;;;;;;3.90;1.67;;;;;;;8.04;95.95;101396.59;5053417;28;20474;-68
2023/12/19 07:29:08;;;;;;;2.60;1.30;;;;;;;8.03;96.30;101401.19;5052632;28;20477;-68
2023/12/19 07:31:34;;;;;;;2.80;1.23;;;;;;;7.93;97.93;101390.34;5052806;28;20450;-68
2023/12/19 07:34:04;;;;;;;4.43;1.70;;;;;;;7.86;99.20;101380.88;5053100;28;20490;-68
2023/12/19 07:36:32;;;;;;;4.10;1.87;;;;;;;7.74;100.00;101381.88;5053208;28;20486;-68
2023/12/19 07:38:59;;;;;;;6.13;1.63;;;;;;;7.66;100.00;101382.41;5053289;28;20470;-68
2023/12/19 07:41:26;;;;;;;8.23;1.70;;;;;;;7.57;100.00;101373.19;5052573;28;20437;-68
2023/12/19 07:43:53;;;;;;;4.10;1.27;;;;;;;7.55;100.00;101384.22;5052787;28;20553;-69
2023/12/19 07:46:20;;;;;;;3.83;1.63;;;;;;;7.53;100.00;101388.25;5052909;28;20924;-68
2023/12/19 07:48:47;;;;;;;3.63;1.73;;;;;;;7.54;100.00;101388.00;5056792;28;20537;-68
2023/12/19 07:51:18;;;;;;;3.63;1.60;;;;;;;7.46;100.00;101384.97;5056582;28;20470;-68
2023/12/19 07:53:44;;;;;;;3.63;1.33;;;;;;;7.38;100.00;101383.56;5056497;28;21027;-68
2023/12/19 07:56:11;;;;;;;3.87;1.73;;;;;;;7.36;100.00;101387.59;5056544;28;20580;-68
2023/12/19 07:58:38;;;;;;;4.50;1.60;;;;;;;7.33;100.00;101386.22;5056418;28;20525;-68
2023/12/19 08:01:05;;;;;;;3.27;1.60;;;;;;;7.28;100.00;101383.50;5056380;28;20442;-68
2023/12/19 08:03:33;;;;;;;3.20;1.07;;;;;;;7.25;100.00;101381.31;5056094;28;20438;-68
2023/12/19 08:06:00;;;;;;;4.03;1.60;;;;;;;7.24;100.00;101383.22;5055947;28;20450;-68
2023/12/19 08:08:28;;;;;;;3.13;1.30;;;;;;;7.18;100.00;101384.25;5056270;28;20466;-68
2023/12/19 08:10:54;;;;;;;2.67;0.93;;;;;;;7.19;100.00;101379.66;5056363;28;20444;-68
2023/12/19 08:13:21;;;;;;;3.30;1.27;;;;;;;7.16;100.00;101367.53;5056574;28;20438;-68
2023/12/19 08:15:48;;;;;;;4.67;1.70;;;;;;;7.15;100.00;101355.13;5055976;28;20572;-68
2023/12/19 08:18:15;;;;;;;3.63;1.97;;;;;;;7.16;100.00;101342.47;5056213;28;20440;-68
2023/12/19 08:20:42;;;;;;;4.93;1.83;;;;;;;7.16;100.00;101331.69;5056114;28;20434;-68
2023/12/19 08:23:09;;;;;;;5.60;1.83;;;;;;;7.15;100.00;101322.78;5056266;28;20802;-68
2023/12/19 08:25:38;;;;;;;3.23;1.37;;;;;;;7.15;100.00;101325.50;5055919;28;20545;-66
2023/12/19 08:28:05;;;;;;;3.53;1.57;;;;;;;7.12;100.00;101323.31;5056340;28;20477;-67
2023/12/19 08:30:32;;;;;;;3.20;1.10;;;;;;;7.10;100.00;101320.06;5055531;28;20442;-68
2023/12/19 08:32:59;;;;;;;3.00;1.90;;;;;;;7.10;100.00;101312.00;5055585;28;21029;-68
2023/12/19 08:35:26;;;;;;;2.70;1.10;;;;;;;7.11;100.00;101313.59;5056275;28;20477;-68
2023/12/19 08:37:53;;;;;;;4.33;1.97;;;;;;;7.10;100.00;101311.19;5055488;28;20946;-68
2023/12/19 08:40:20;;;;;;;3.20;1.30;;;;;;;7.12;100.00;101320.63;5055402;28;20446;-68
2023/12/19 08:42:49;;;;;;;3.30;1.17;;;;;;;7.07;100.00;101325.97;5055552;28;20434;-68
2023/12/19 08:45:16;;;;;;;3.90;1.70;;;;;;;7.07;100.00;101318.69;5055304;28;20466;-69
2023/12/19 08:47:43;;;;;;;2.47;1.00;;;;;;;7.04;100.00;101313.03;5055885;28;20521;-68
2023/12/19 08:50:11;;;;;;;5.00;1.97;;;;;;;7.03;100.00;101311.41;5055161;28;20442;-69
2023/12/19 08:52:38;;;;;;;3.30;1.30;;;;;;;7.01;100.00;101308.16;5055383;28;20903;-69
2023/12/19 08:55:07;;;;;;;6.60;1.80;;;;;;;7.04;100.00;101296.88;5055333;28;20904;-69
2023/12/19 08:57:35;;;;;;;4.53;1.77;;;;;;;7.09;100.00;101294.22;5055336;28;20565;-69
2023/12/19 09:00:04;;;;;;;2.43;1.20;;;;;;;7.10;100.00;101298.53;5054294;28;20960;-69
2023/12/19 09:02:30;;;;;;;5.10;2.43;;;;;;;7.11;100.00;101297.44;5055359;28;20512;-69
2023/12/19 09:04:57;;;;;;;3.77;1.57;;;;;;;7.12;100.00;101293.69;5055302;28;20473;-69
2023/12/19 09:07:24;;;;;;;4.57;2.57;;;;;;;7.16;100.00;101293.97;5055612;28;20453;-69
2023/12/19 09:09:52;;;;;;;6.90;3.13;;;;;;;7.14;100.00;101296.94;5054977;28;20596;-69
2023/12/19 09:12:18;;;;;;;14.00;5.57;;;;;;;7.18;100.00;101300.72;5055528;28;20537;-69
2023/12/19 09:14:45;;;;;;;5.53;2.40;;;;;;;7.19;100.00;101298.84;5054959;28;20453;-69
2023/12/19 09:17:13;;;;;;;3.50;1.80;;;;;;;7.20;100.00;101289.69;5055039;28;20481;-69
2023/12/19 09:19:39;;;;;;;3.70;1.63;;;;;;;7.18;100.00;101281.88;5055128;28;20450;-69
2023/12/19 09:22:06;;;;;;;6.10;2.40;;;;;;;7.21;100.00;101275.94;5054676;28;20496;-69
2023/12/19 09:24:33;;;;;;;5.17;1.90;;;;;;;7.15;100.00;101268.09;5055121;28;20493;-70
2023/12/19 09:26:59;;;;;;;5.70;2.50;;;;;;;7.14;100.00;101263.81;5054822;28;21037;-70
2023/12/19 09:29:27;;;;;;;5.73;1.93;;;;;;;7.13;100.00;101262.16;5054404;28;20939;-70
2023/12/19 09:31:54;;;;;;;5.67;2.23;;;;;;;7.11;100.00;101270.50;5054412;28;20939;-70
2023/12/19 09:34:22;;;;;;;3.33;1.53;;;;;;;7.10;100.00;101260.81;5054718;28;20845;-70
2023/12/19 09:36:48;;;;;;;2.80;1.30;;;;;;;7.10;100.00;101260.00;5055065;28;20841;-70
2023/12/19 09:39:15;;;;;;;3.43;1.70;;;;;;;7.08;100.00;101254.84;5054323;28;20950;-70
2023/12/19 09:41:42;;;;;;;3.20;1.30;;;;;;;7.06;100.00;101252.44;5054768;28;20533;-70
2023/12/19 09:44:10;;;;;;;8.70;1.80;;;;;;;7.05;100.00;101264.28;5054719;28;20493;-70
2023/12/19 09:46:37;;;;;;;3.20;1.30;;;;;;;7.04;100.00;101267.25;5055297;28;20435;-70
2023/12/19 09:49:04;;;;;;;3.60;1.63;;;;;;;6.99;100.00;101254.53;5054420;28;20966;-70
2023/12/19 09:51:33;;;;;;;8.73;3.00;;;;;;;6.93;100.00;101249.41;5054301;28;20438;-70
2023/12/19 09:54:01;;;;;;;3.70;1.57;;;;;;;6.90;100.00;101231.88;5054252;28;20462;-70
2023/12/19 09:56:28;;;;;;;3.10;1.27;;;;;;;6.85;100.00;101222.94;5054138;28;20482;-70
2023/12/19 09:58:56;;;;;;;3.73;1.60;;;;;;;6.80;100.00;101224.53;5054318;28;20446;-70
2023/12/19 10:01:22;;;;;;;5.93;2.63;;;;;;;6.80;100.00;101213.78;5054353;28;20860;-70
2023/12/19 10:03:55;;;;;;;3.33;1.37;;;;;;;6.81;100.00;101209.19;5054050;28;20953;-70
2023/12/19 10:06:21;;;;;;;3.13;1.43;;;;;;;6.78;100.00;101199.78;5054297;28;20426;-70
2023/12/19 10:08:52;;;;;;;11.43;2.37;;;;;;;6.75;100.00;101191.41;5053936;28;20525;-70
2023/12/19 10:11:21;;;;;;;4.47;1.60;;;;;;;6.75;100.00;101192.19;5053632;28;20450;-70
2023/12/19 10:13:48;;;;;;;4.73;1.40;;;;;;;6.69;100.00;101195.94;5053918;28;20462;-70
2023/12/19 10:16:17;;;;;;;3.20;1.37;;;;;;;6.71;100.00;101195.69;5054157;28;20538;-70
2023/12/19 10:18:45;;;;;;;3.50;1.70;;;;;;;6.70;100.00;101189.50;5053595;28;20442;-70
2023/12/19 10:21:13;;;;;;;5.70;1.53;;;;;;;6.69;100.00;101179.78;5053477;28;20466;-70
2023/12/19 10:23:40;;;;;;;3.93;1.13;;;;;;;6.65;100.00;101165.22;5054081;28;20445;-70
2023/12/19 10:26:09;;;;;;;3.33;1.17;;;;;;;6.60;100.00;101156.28;5053754;28;20525;-70
2023/12/19 10:28:36;;;;;;;3.23;1.23;;;;;;;6.58;100.00;101143.09;5054045;28;20528;-70
2023/12/19 10:31:15;;;;;;;3.67;1.80;;;;;;;6.58;100.00;101138.53;5054187;28;20470;-70
2023/12/19 10:33:43;;;;;;;2.50;1.13;;;;;;;6.58;100.00;101133.16;5053197;28;20461;-70
2023/12/19 10:36:21;;;;;;;2.93;1.00;;;;;;;6.56;100.00;101123.72;5053752;28;20445;-70
2023/12/19 10:38:48;;;;;;;2.97;1.53;;;;;;;6.52;100.00;101115.38;5053896;28;20504;-68
2023/12/19 10:41:20;;;;;;;3.77;1.73;;;;;;;6.51;100.00;101112.94;5053695;28;20526;-70
2023/12/19 10:43:49;;;;;;;6.17;1.37;;;;;;;6.50;100.00;101108.59;5053744;28;20462;-70
2023/12/19 10:46:17;;;;;;;2.60;1.10;;;;;;;6.47;100.00;101103.78;5053303;28;20438;-70
2023/12/19 10:48:44;;;;;;;3.13;1.43;;;;;;;6.52;100.00;101111.88;5053768;28;20477;-70
2023/12/19 10:51:12;;;;;;;2.43;1.00;;;;;;;6.51;100.00;101088.72;5053339;28;20464;-70
2023/12/19 10:53:41;;;;;;;4.00;1.50;;;;;;;6.53;100.00;101083.88;5053551;28;20492;-70
2023/12/19 10:56:09;;;;;;;2.37;0.83;;;;;;;6.57;100.00;101082.28;5053700;28;20445;-70
2023/12/19 10:58:46;;;;;;;3.90;1.90;;;;;;;6.59;100.00;101085.50;5052948;28;20834;-70
2023/12/19 11:01:14;;;;;;;3.27;1.17;;;;;;;6.60;100.00;101079.09;5053166;28;20522;-70
2023/12/19 11:03:48;;;;;;;3.80;1.23;;;;;;;6.64;100.00;101080.19;5053311;28;20548;-70
2023/12/19 11:06:18;;;;;;;3.70;1.30;;;;;;;6.67;100.00;101063.47;5053455;28;20517;-70
2023/12/19 11:08:49;;;;;;;3.47;1.53;;;;;;;6.68;100.00;101057.03;5052935;28;20444;-70
2023/12/19 11:11:25;;;;;;;2.30;0.87;;;;;;;6.70;100.00;101062.97;5053044;28;20444;-70
2023/12/19 11:13:54;;;;;;;3.93;1.80;;;;;;;6.75;100.00;101057.59;5053222;28;20488;-70
2023/12/19 11:16:27;;;;;;;5.53;2.00;;;;;;;6.75;100.00;101054.91;5052849;28;21017;-70
2023/12/19 11:18:58;;;;;;;4.60;1.70;;;;;;;6.75;100.00;101051.41;5053263;28;20421;-68
2023/12/19 11:21:30;;;;;;;6.70;2.47;;;;;;;6.72;100.00;101050.03;5053124;28;20470;-68
2023/12/19 11:24:07;;;;;;;2.80;0.90;;;;;;;6.72;100.00;101035.78;5057097;28;20462;-69
2023/12/19 11:26:38;;;;;;;10.00;2.97;;;;;;;6.73;100.00;101040.06;5056857;28;20460;-73
2023/12/19 11:29:06;;;;;;;6.33;2.27;;;;;;;6.72;100.00;101039.28;5057072;28;20425;-69
2023/12/19 11:31:36;;;;;;;4.23;1.73;;;;;;;6.78;100.00;101043.63;5057089;28;20446;-69